Russell, Massachusetts
Current Conditions -  °F | °C
As of 2:53 PM on Sunday 25 Jan 2015 (Local Time) from KBAF Reporting Station
Clear Clear  
Wind Chill: 18°   Ceiling: Unl
Heat Index: 31°   Visibility: 10mi
Dew Point:   Wind: 21mph
Humidity: 37%   Direction: 270°W
Pressure: 29.77"   Gusts: 29mph
Location:  42.19°N, 72.86°W
Report Text: KBAF 251953Z 27018G25KT 10SM CLR M01/M14 A2977 RMK AO2 PK WND 28026/1949 SLP086 T10061139
Loading
Personal Weather Stations






























Interactive Weather Map New forecast layout! Learn more

10-Day Weather Forecast

Advertisements
Track Severe Weather on mobile